createdAt,value
2018-06-14T00:00:04.074Z,14.00
2018-06-14T00:02:34.207Z,13.90
2018-06-14T00:05:04.461Z,13.90
2018-06-14T00:07:34.594Z,13.90
2018-06-14T00:10:04.918Z,13.90
2018-06-14T00:12:35.074Z,13.90
2018-06-14T00:15:06.374Z,13.90
2018-06-14T00:17:36.529Z,13.90
2018-06-14T00:20:08.005Z,13.90
2018-06-14T00:22:38.162Z,13.90
2018-06-14T00:25:08.419Z,13.90
2018-06-14T00:27:38.693Z,13.90
2018-06-14T00:30:08.974Z,13.90
2018-06-14T00:32:39.222Z,13.90
2018-06-14T00:35:09.362Z,13.90
2018-06-14T00:37:39.636Z,14.00
2018-06-14T00:40:09.825Z,14.00
2018-06-14T00:42:40.014Z,14.00
2018-06-14T00:45:10.150Z,14.00
2018-06-14T00:47:40.398Z,14.00
2018-06-14T00:50:10.537Z,14.00
2018-06-14T00:52:40.925Z,14.00
2018-06-14T00:55:11.073Z,13.90
2018-06-14T00:57:41.333Z,13.90
2018-06-14T01:00:11.477Z,13.90
2018-06-14T01:02:41.709Z,13.90
2018-06-14T01:05:11.949Z,13.90
2018-06-14T01:07:42.134Z,13.80
2018-06-14T01:10:12.415Z,13.80
2018-06-14T01:12:42.595Z,13.70
2018-06-14T01:15:12.846Z,13.70
2018-06-14T01:17:43.003Z,13.70
2018-06-14T01:20:13.258Z,13.70
2018-06-14T01:22:43.450Z,13.70
2018-06-14T01:25:13.701Z,13.80
2018-06-14T01:27:43.866Z,13.80
2018-06-14T01:30:14.278Z,13.80
2018-06-14T01:32:44.465Z,13.80
2018-06-14T01:35:14.713Z,13.80
2018-06-14T01:38:01.739Z,13.80
2018-06-14T01:40:32.008Z,13.80
2018-06-14T01:43:02.179Z,13.90
2018-06-14T01:45:32.457Z,13.90
2018-06-14T01:48:02.633Z,13.90
2018-06-14T01:50:32.885Z,13.90
2018-06-14T01:53:03.126Z,13.90
2018-06-14T01:55:34.243Z,13.90
2018-06-14T01:58:04.770Z,13.90
2018-06-14T02:00:34.909Z,13.90
2018-06-14T02:03:05.202Z,13.80
2018-06-14T02:05:35.346Z,13.80
2018-06-14T02:08:05.593Z,13.80
2018-06-14T02:10:35.734Z,13.80
2018-06-14T02:13:06.004Z,13.80
2018-06-14T02:15:36.138Z,13.80
2018-06-14T02:18:06.393Z,13.70
2018-06-14T02:20:36.527Z,13.60
2018-06-14T02:23:06.801Z,13.50
2018-06-14T02:25:36.958Z,13.30
2018-06-14T02:28:07.314Z,13.20
2018-06-14T02:30:37.449Z,13.00
2018-06-14T02:33:07.724Z,12.90
2018-06-14T02:35:37.863Z,12.90
2018-06-14T02:38:08.198Z,12.70
2018-06-14T02:40:38.346Z,12.70
2018-06-14T02:43:08.613Z,12.60
2018-06-14T02:45:38.857Z,12.60
2018-06-14T02:48:09.002Z,12.50
2018-06-14T02:50:39.254Z,12.50
2018-06-14T02:53:09.403Z,12.50
2018-06-14T02:55:39.813Z,12.40
2018-06-14T02:58:10.193Z,12.40
2018-06-14T03:00:40.452Z,12.30
2018-06-14T03:03:10.850Z,12.40
2018-06-14T03:05:41.123Z,12.40
2018-06-14T03:08:11.257Z,12.30
2018-06-14T03:10:41.509Z,12.40
2018-06-14T03:13:11.690Z,12.40
2018-06-14T03:15:41.938Z,12.40
2018-06-14T03:18:12.077Z,12.60
2018-06-14T03:20:42.345Z,12.50
2018-06-14T03:23:12.503Z,12.50
2018-06-14T03:25:46.994Z,12.50
2018-06-14T03:28:17.309Z,12.50
2018-06-14T03:30:47.557Z,12.50
2018-06-14T03:33:17.834Z,12.60
2018-06-14T03:35:47.990Z,12.60
2018-06-14T03:38:18.268Z,12.60
2018-06-14T03:40:48.440Z,12.60
2018-06-14T03:43:18.670Z,12.60
2018-06-14T03:45:48.822Z,12.70
2018-06-14T03:48:19.109Z,12.70
2018-06-14T03:50:49.215Z,12.80
2018-06-14T03:53:19.471Z,12.90
2018-06-14T03:55:49.610Z,13.00
2018-06-14T03:58:19.886Z,13.20
2018-06-14T04:00:50.018Z,13.40
2018-06-14T04:03:20.270Z,13.40
2018-06-14T04:05:50.415Z,13.60
2018-06-14T04:08:20.670Z,13.60
2018-06-14T04:10:50.806Z,13.80
2018-06-14T04:13:21.123Z,13.80
2018-06-14T04:15:51.246Z,14.00
2018-06-14T04:18:21.500Z,14.00
2018-06-14T04:20:51.649Z,14.20
2018-06-14T04:23:21.902Z,14.40
2018-06-14T04:25:52.134Z,14.60
2018-06-14T04:28:22.521Z,14.80
2018-06-14T04:30:52.786Z,14.90
2018-06-14T04:33:22.934Z,15.20
2018-06-14T04:35:53.183Z,15.50
2018-06-14T04:38:23.330Z,15.70
2018-06-14T04:40:53.591Z,15.90
2018-06-14T04:43:23.742Z,16.10
2018-06-14T04:45:54.094Z,16.00
2018-06-14T04:48:24.220Z,15.90
2018-06-14T04:50:54.465Z,15.70
2018-06-14T04:53:24.613Z,15.60
2018-06-14T04:55:54.850Z,15.90
2018-06-14T04:58:25.012Z,16.40
2018-06-14T05:00:55.263Z,16.60
2018-06-14T05:03:25.402Z,16.50
2018-06-14T05:05:55.667Z,17.10
2018-06-14T05:08:25.825Z,17.80
2018-06-14T05:10:56.506Z,17.90
2018-06-14T05:13:26.769Z,18.10
2018-06-14T05:16:00.971Z,17.90
2018-06-14T05:18:31.111Z,17.70
2018-06-14T05:21:01.420Z,17.70
2018-06-14T05:23:31.746Z,17.60
2018-06-14T05:26:01.831Z,17.70
2018-06-14T05:28:32.223Z,19.20
2018-06-14T05:31:02.346Z,19.30
2018-06-14T05:33:32.662Z,20.60
2018-06-14T05:36:02.810Z,21.00
2018-06-14T05:38:33.059Z,21.50
2018-06-14T05:41:03.206Z,23.00
2018-06-14T05:43:33.482Z,23.90
2018-06-14T05:46:03.616Z,23.70
2018-06-14T05:48:33.918Z,23.00
2018-06-14T05:51:04.073Z,23.50
2018-06-14T05:53:34.320Z,24.50
2018-06-14T05:56:04.484Z,23.90
2018-06-14T05:58:34.772Z,23.20
2018-06-14T06:01:04.906Z,22.50
2018-06-14T06:03:35.158Z,21.50
2018-06-14T06:06:05.362Z,21.50
2018-06-14T06:08:35.610Z,22.00
2018-06-14T06:11:05.781Z,21.90
2018-06-14T06:13:36.042Z,21.70
2018-06-14T06:16:06.199Z,23.20
2018-06-14T06:18:36.493Z,23.90
2018-06-14T06:21:06.649Z,24.70
2018-06-14T06:23:36.934Z,25.00
2018-06-14T06:26:07.113Z,25.10
2018-06-14T06:28:37.443Z,25.20
2018-06-14T06:31:08.452Z,24.40
2018-06-14T06:33:38.803Z,24.70
2018-06-14T06:36:08.986Z,25.10
2018-06-14T06:38:39.239Z,25.80
2018-06-14T06:41:09.398Z,25.80
2018-06-14T06:43:39.629Z,25.10
2018-06-14T06:46:09.941Z,24.40
2018-06-14T06:48:40.082Z,23.70
2018-06-14T06:51:10.309Z,23.00
2018-06-14T06:53:40.507Z,22.80
2018-06-14T06:56:10.782Z,23.00
2018-06-14T06:58:40.937Z,23.10
2018-06-14T07:01:11.167Z,23.30
2018-06-14T07:03:41.315Z,23.40
2018-06-14T07:06:11.672Z,22.80
2018-06-14T07:08:41.787Z,22.70
2018-06-14T07:11:12.036Z,22.40
2018-06-14T07:13:42.181Z,22.80
2018-06-14T07:16:12.456Z,23.50
2018-06-14T07:18:42.597Z,23.60
2018-06-14T07:21:12.894Z,23.90
2018-06-14T07:23:43.178Z,24.20
2018-06-14T07:26:13.319Z,24.60
2018-06-14T07:28:43.670Z,24.60
2018-06-14T07:31:13.810Z,24.10
2018-06-14T07:33:44.090Z,23.80
2018-06-14T07:36:14.227Z,23.60
2018-06-14T07:38:44.499Z,24.20
2018-06-14T07:41:14.665Z,24.70
2018-06-14T07:43:44.975Z,24.40
2018-06-14T07:46:15.118Z,24.40
2018-06-14T07:48:45.371Z,24.70
2018-06-14T07:51:15.502Z,24.00
2018-06-14T07:53:45.802Z,23.70
2018-06-14T07:56:15.948Z,23.90
2018-06-14T07:58:46.228Z,23.10
2018-06-14T08:01:16.618Z,22.70
2018-06-14T08:03:46.934Z,22.40
2018-06-14T08:06:17.174Z,22.60
2018-06-14T08:08:47.314Z,22.30
2018-06-14T08:11:17.566Z,22.00
2018-06-14T08:13:47.714Z,22.00
2018-06-14T08:16:17.975Z,21.90
2018-06-14T08:18:48.107Z,21.80
2018-06-14T08:21:18.378Z,21.70
2018-06-14T08:23:48.538Z,21.60
2018-06-14T08:26:18.772Z,21.20
2018-06-14T08:28:49.087Z,21.10
2018-06-14T08:31:19.337Z,21.40
2018-06-14T08:33:49.595Z,21.50
2018-06-14T08:36:19.942Z,21.60
2018-06-14T08:38:50.098Z,21.60
2018-06-14T08:41:20.338Z,21.80
2018-06-14T08:43:50.518Z,21.70
2018-06-14T08:46:20.776Z,21.40
2018-06-14T08:48:50.927Z,21.40
2018-06-14T08:51:21.150Z,21.30
2018-06-14T08:53:51.298Z,21.30
2018-06-14T08:56:21.526Z,21.20
2018-06-14T08:58:51.666Z,21.10
2018-06-14T09:01:21.917Z,21.20
2018-06-14T09:03:52.062Z,21.60
2018-06-14T09:06:22.338Z,21.70
2018-06-14T09:08:52.494Z,21.70
2018-06-14T09:11:22.756Z,21.60
2018-06-14T09:13:53.019Z,21.70
2018-06-14T09:16:23.171Z,21.70
2018-06-14T09:18:53.434Z,21.70
2018-06-14T09:21:23.606Z,21.90
2018-06-14T09:23:53.860Z,21.70
2018-06-14T09:26:24.006Z,22.00
2018-06-14T09:28:54.454Z,22.20
2018-06-14T09:31:24.730Z,22.60
2018-06-14T09:33:55.262Z,22.50
2018-06-14T09:36:25.419Z,22.30
2018-06-14T09:38:55.697Z,22.20
2018-06-14T09:41:25.846Z,22.50
2018-06-14T09:43:56.101Z,22.60
2018-06-14T09:46:26.254Z,22.70
2018-06-14T09:49:01.838Z,22.90
2018-06-14T09:51:31.977Z,22.80
2018-06-14T09:54:02.266Z,22.50
2018-06-14T09:56:32.446Z,22.60
2018-06-14T09:59:02.735Z,22.70
2018-06-14T10:01:32.910Z,22.90
2018-06-14T10:04:03.193Z,22.60
2018-06-14T10:06:33.450Z,22.20
2018-06-14T10:09:04.254Z,22.30
2018-06-14T10:11:34.398Z,22.50
2018-06-14T10:14:04.639Z,22.30
2018-06-14T10:16:34.886Z,22.80
2018-06-14T10:19:05.274Z,23.10
2018-06-14T10:21:35.550Z,23.20
2018-06-14T10:24:05.783Z,22.90
2018-06-14T10:26:36.040Z,22.60
2018-06-14T10:29:06.302Z,22.50
2018-06-14T10:31:36.545Z,22.70
2018-06-14T10:34:06.797Z,22.90
2018-06-14T10:36:37.045Z,23.50
2018-06-14T10:39:08.213Z,23.70
2018-06-14T10:41:38.450Z,23.80
2018-06-14T10:44:08.654Z,23.70
2018-06-14T10:46:38.882Z,23.50
2018-06-14T10:49:09.009Z,23.20
2018-06-14T10:51:39.265Z,22.70
2018-06-14T10:54:09.434Z,22.80
2018-06-14T10:56:39.686Z,23.10
2018-06-14T10:59:09.870Z,22.90
2018-06-14T11:01:40.083Z,22.70
2018-06-14T11:04:10.233Z,22.40
2018-06-14T11:06:40.494Z,22.50
2018-06-14T11:09:11.702Z,23.00
2018-06-14T11:11:42.216Z,23.10
2018-06-14T11:14:12.378Z,22.80
2018-06-14T11:16:42.598Z,22.50
2018-06-14T11:19:13.006Z,22.70
2018-06-14T11:21:43.214Z,23.10
2018-06-14T11:24:13.462Z,23.10
2018-06-14T11:26:43.633Z,23.50
2018-06-14T11:29:14.026Z,23.50
2018-06-14T11:31:44.174Z,23.20
2018-06-14T11:34:14.426Z,23.10
2018-06-14T11:36:44.581Z,23.30
2018-06-14T11:39:14.821Z,23.60
2018-06-14T11:41:45.199Z,23.70
2018-06-14T11:44:15.439Z,24.20
2018-06-14T11:46:45.590Z,24.30
2018-06-14T11:49:15.898Z,24.20
2018-06-14T11:51:46.090Z,23.80
2018-06-14T11:54:16.393Z,23.70
2018-06-14T11:56:46.549Z,23.90
2018-06-14T11:59:16.829Z,23.90
2018-06-14T12:01:47.051Z,23.90
2018-06-14T12:04:17.262Z,23.70
2018-06-14T12:06:47.396Z,23.40
2018-06-14T12:09:17.651Z,23.80
2018-06-14T12:11:47.785Z,23.70
2018-06-14T12:14:18.217Z,23.50
2018-06-14T12:16:48.376Z,23.40
2018-06-14T12:19:18.666Z,23.00
2018-06-14T12:21:49.007Z,22.90
2018-06-14T12:24:19.164Z,23.20
2018-06-14T12:26:49.454Z,23.40
2018-06-14T12:29:19.705Z,23.20
2018-06-14T12:31:49.955Z,23.20
2018-06-14T12:34:20.261Z,23.40
2018-06-14T12:36:50.509Z,23.20
2018-06-14T12:39:20.646Z,23.50
2018-06-14T12:41:50.891Z,23.80
2018-06-14T12:44:21.070Z,23.80
2018-06-14T12:46:51.252Z,23.70
2018-06-14T12:49:21.393Z,23.80
2018-06-14T12:51:51.666Z,24.10
2018-06-14T12:54:21.813Z,24.00
2018-06-14T12:56:52.057Z,23.70
2018-06-14T12:59:22.196Z,23.60
2018-06-14T13:01:52.434Z,23.60
2018-06-14T13:04:22.579Z,23.90
2018-06-14T13:06:52.811Z,24.20
2018-06-14T13:09:22.953Z,24.40
2018-06-14T13:11:53.202Z,24.60
2018-06-14T13:14:23.346Z,24.50
2018-06-14T13:16:53.606Z,24.30
2018-06-14T13:19:23.846Z,24.30
2018-06-14T13:21:54.027Z,24.30
2018-06-14T13:24:24.286Z,23.90
2018-06-14T13:26:54.481Z,23.80
2018-06-14T13:29:24.826Z,24.00
2018-06-14T13:31:54.955Z,24.30
2018-06-14T13:34:25.203Z,24.60
2018-06-14T13:36:55.338Z,24.60
2018-06-14T13:39:25.641Z,24.60
2018-06-14T13:41:55.798Z,24.20
2018-06-14T13:44:26.069Z,24.00
2018-06-14T13:46:56.227Z,23.50
2018-06-14T13:49:26.467Z,23.30
2018-06-14T13:51:56.665Z,23.50
2018-06-14T13:54:26.922Z,23.90
2018-06-14T13:56:57.128Z,24.30
2018-06-14T13:59:27.324Z,24.30
2018-06-14T14:01:57.449Z,24.50
2018-06-14T14:04:27.754Z,24.00
2018-06-14T14:07:04.930Z,24.10
2018-06-14T14:09:35.283Z,23.90
2018-06-14T14:12:05.555Z,24.00
2018-06-14T14:14:35.718Z,24.20
2018-06-14T14:17:05.926Z,24.50
2018-06-14T14:19:36.075Z,24.50
2018-06-14T14:22:06.483Z,24.50
2018-06-14T14:24:36.655Z,24.50
2018-06-14T14:27:06.933Z,24.70
2018-06-14T14:29:37.348Z,24.70
2018-06-14T14:32:07.677Z,24.50
2018-06-14T14:34:37.842Z,24.30
2018-06-14T14:37:08.127Z,24.50
2018-06-14T14:39:38.255Z,24.50
2018-06-14T14:42:08.570Z,24.30
2018-06-14T14:44:38.834Z,24.20
2018-06-14T14:47:09.125Z,24.10
2018-06-14T14:49:39.266Z,24.00
2018-06-14T14:52:09.514Z,24.20
2018-06-14T14:54:39.645Z,24.40
2018-06-14T14:57:10.114Z,24.60
2018-06-14T14:59:40.296Z,24.50
2018-06-14T15:02:10.550Z,24.40
2018-06-14T15:04:40.807Z,24.20
2018-06-14T15:07:10.954Z,24.00
2018-06-14T15:09:41.223Z,23.90
2018-06-14T15:12:11.346Z,23.60
2018-06-14T15:14:41.611Z,23.60
2018-06-14T15:17:11.745Z,23.60
2018-06-14T15:19:41.998Z,23.70
2018-06-14T15:22:12.137Z,23.70
2018-06-14T15:24:42.430Z,23.50
2018-06-14T15:27:12.572Z,23.40
2018-06-14T15:29:42.935Z,23.70
2018-06-14T15:32:13.187Z,23.70
2018-06-14T15:34:43.550Z,24.00
2018-06-14T15:37:13.758Z,24.30
2018-06-14T15:39:44.031Z,24.20
2018-06-14T15:42:14.278Z,24.20
2018-06-14T15:44:44.559Z,24.20
2018-06-14T15:47:14.717Z,23.90
2018-06-14T15:49:45.024Z,23.80
2018-06-14T15:52:15.168Z,23.80
2018-06-14T15:54:50.339Z,23.90
2018-06-14T15:57:20.500Z,23.80
2018-06-14T15:59:50.778Z,23.80
2018-06-14T16:02:21.071Z,23.60
2018-06-14T16:04:51.313Z,23.60
2018-06-14T16:07:21.557Z,23.70
2018-06-14T16:09:51.755Z,23.50
2018-06-14T16:12:22.064Z,23.30
2018-06-14T16:14:52.231Z,23.30
2018-06-14T16:17:22.518Z,23.50
2018-06-14T16:19:52.689Z,23.60
2018-06-14T16:22:22.961Z,23.70
2018-06-14T16:24:53.200Z,23.40
2018-06-14T16:27:23.518Z,23.40
2018-06-14T16:29:53.812Z,23.20
2018-06-14T16:32:24.081Z,22.90
2018-06-14T16:34:54.317Z,22.80
2018-06-14T16:37:24.637Z,22.70
2018-06-14T16:39:54.841Z,22.50
2018-06-14T16:42:25.213Z,22.40
2018-06-14T16:44:55.366Z,22.20
2018-06-14T16:47:25.661Z,22.10
2018-06-14T16:49:55.838Z,21.90
2018-06-14T16:52:26.210Z,21.70
2018-06-14T16:54:57.826Z,21.00
2018-06-14T16:57:28.233Z,20.60
2018-06-14T16:59:58.414Z,20.10
2018-06-14T17:02:28.753Z,19.60
2018-06-14T17:04:59.447Z,19.10
2018-06-14T17:07:29.746Z,18.80
2018-06-14T17:10:00.648Z,18.40
2018-06-14T17:12:30.802Z,18.20
2018-06-14T17:15:01.111Z,18.10
2018-06-14T17:17:31.276Z,17.90
2018-06-14T17:20:01.570Z,17.80
2018-06-14T17:22:31.738Z,17.70
2018-06-14T17:25:02.026Z,17.60
2018-06-14T17:27:32.196Z,17.60
2018-06-14T17:30:02.566Z,17.50
2018-06-14T17:32:32.743Z,17.40
2018-06-14T17:35:03.024Z,17.40
2018-06-14T17:37:33.175Z,17.40
2018-06-14T17:40:03.439Z,17.40
2018-06-14T17:42:33.644Z,17.30
2018-06-14T17:45:03.894Z,17.30
2018-06-14T17:47:34.040Z,17.10
2018-06-14T17:50:06.080Z,17.10
2018-06-14T17:52:36.378Z,17.10
2018-06-14T17:55:06.689Z,17.10
2018-06-14T17:57:36.883Z,17.00
2018-06-14T18:00:07.237Z,16.90
2018-06-14T18:02:37.395Z,17.00
2018-06-14T18:05:08.241Z,16.90
2018-06-14T18:07:38.622Z,17.00
2018-06-14T18:10:08.295Z,16.90
2018-06-14T18:12:38.546Z,16.90
2018-06-14T18:15:08.720Z,16.90
2018-06-14T18:17:39.051Z,16.90
2018-06-14T18:20:09.338Z,16.90
2018-06-14T18:22:39.631Z,16.90
2018-06-14T18:25:09.838Z,16.90
2018-06-14T18:27:40.104Z,16.80
2018-06-14T18:30:10.401Z,16.80
2018-06-14T18:32:40.751Z,16.80
2018-06-14T18:35:10.837Z,16.80
2018-06-14T18:37:41.109Z,16.80
2018-06-14T18:40:11.284Z,16.80
2018-06-14T18:42:41.539Z,16.90
2018-06-14T18:45:11.733Z,16.80
2018-06-14T18:47:42.054Z,16.80
2018-06-14T18:50:12.235Z,16.70
2018-06-14T18:52:42.622Z,16.70
2018-06-14T18:55:12.820Z,16.70
2018-06-14T18:57:43.101Z,16.70
2018-06-14T19:00:13.345Z,16.70
2018-06-14T19:02:43.643Z,16.70
2018-06-14T19:05:13.915Z,16.70
2018-06-14T19:07:44.094Z,16.70
2018-06-14T19:10:14.381Z,16.60
2018-06-14T19:12:44.561Z,16.60
2018-06-14T19:15:14.923Z,16.70
2018-06-14T19:17:45.198Z,16.60
2018-06-14T19:20:15.490Z,16.70
2018-06-14T19:22:45.643Z,16.60
2018-06-14T19:25:15.926Z,16.70
2018-06-14T19:27:46.085Z,16.60
2018-06-14T19:30:16.603Z,16.70
2018-06-14T19:32:46.830Z,16.60
2018-06-14T19:35:17.100Z,16.60
2018-06-14T19:37:47.267Z,16.60
2018-06-14T19:40:17.643Z,16.60
2018-06-14T19:45:45.436Z,16.50
2018-06-14T19:48:15.715Z,16.50
2018-06-14T19:50:45.969Z,16.50
2018-06-14T19:53:16.173Z,16.40
2018-06-14T19:55:46.451Z,16.40
2018-06-14T19:58:16.627Z,16.40
2018-06-14T20:00:46.913Z,16.40
2018-06-14T20:03:17.065Z,16.40
2018-06-14T20:05:47.281Z,16.40
2018-06-14T20:08:17.568Z,16.40
2018-06-14T20:10:48.805Z,16.30
2018-06-14T20:13:18.941Z,16.40
2018-06-14T20:15:49.505Z,16.40
2018-06-14T20:18:19.649Z,16.40
2018-06-14T20:20:50.049Z,16.50
2018-06-14T20:23:20.214Z,16.50
2018-06-14T20:25:50.363Z,16.40
2018-06-14T20:28:20.621Z,16.50
2018-06-14T20:30:50.862Z,16.50
2018-06-14T20:33:21.149Z,16.50
2018-06-14T20:35:51.526Z,16.50
2018-06-14T20:38:21.932Z,16.50
2018-06-14T20:40:52.114Z,16.50
2018-06-14T20:43:22.365Z,16.50
2018-06-14T20:45:52.629Z,16.50
2018-06-14T20:48:22.898Z,16.40
2018-06-14T20:50:53.042Z,16.40
2018-06-14T20:53:23.320Z,16.40
2018-06-14T20:55:53.534Z,16.40
2018-06-14T20:58:23.805Z,16.40
2018-06-14T21:00:53.974Z,16.30
2018-06-14T21:03:24.236Z,16.30
2018-06-14T21:05:54.392Z,16.40
2018-06-14T21:08:24.673Z,16.40
2018-06-14T21:10:55.085Z,16.40
2018-06-14T21:13:25.528Z,16.30
2018-06-14T21:15:55.743Z,16.30
2018-06-14T21:18:26.134Z,16.30
2018-06-14T21:20:56.353Z,16.30
2018-06-14T21:23:26.585Z,16.30
2018-06-14T21:25:56.866Z,16.30
2018-06-14T21:28:27.080Z,16.30
2018-06-14T21:30:57.414Z,16.30
2018-06-14T21:33:27.581Z,16.30
2018-06-14T21:35:57.849Z,16.20
2018-06-14T21:38:28.333Z,16.20
2018-06-14T21:40:58.662Z,16.20
2018-06-14T21:43:28.802Z,16.30
2018-06-14T21:45:59.041Z,16.30
2018-06-14T21:48:29.194Z,16.30
2018-06-14T21:50:59.443Z,16.30
2018-06-14T21:53:29.649Z,16.30
2018-06-14T21:55:59.906Z,16.30
2018-06-14T21:58:30.054Z,16.30
2018-06-14T22:01:00.301Z,16.30
2018-06-14T22:03:35.675Z,16.30
2018-06-14T22:06:05.936Z,16.20
2018-06-14T22:08:36.093Z,16.20
2018-06-14T22:11:06.518Z,16.20
2018-06-14T22:13:36.638Z,16.20
2018-06-14T22:16:06.931Z,16.20
2018-06-14T22:18:39.133Z,16.20
2018-06-14T22:21:09.266Z,16.10
2018-06-14T22:23:39.523Z,16.10
2018-06-14T22:26:09.674Z,16.10
2018-06-14T22:28:39.925Z,16.10
2018-06-14T22:31:10.178Z,16.10
2018-06-14T22:33:57.377Z,16.10
2018-06-14T22:36:27.540Z,16.10
2018-06-14T22:38:57.774Z,16.10
2018-06-14T22:41:27.912Z,16.10
2018-06-14T22:43:58.231Z,16.10
2018-06-14T22:46:28.351Z,16.10
2018-06-14T22:48:57.969Z,16.10
2018-06-14T22:51:36.309Z,16.10
2018-06-14T22:54:05.841Z,16.10
2018-06-14T22:56:35.193Z,16.10
2018-06-14T22:59:04.641Z,16.10
2018-06-14T23:01:43.914Z,16.10
2018-06-14T23:04:17.613Z,16.10
2018-06-14T23:06:46.961Z,16.10
2018-06-14T23:10:28.738Z,16.10
2018-06-14T23:12:58.092Z,16.10
2018-06-14T23:15:27.613Z,16.10
2018-06-14T23:17:57.150Z,16.10
2018-06-14T23:20:27.504Z,16.10
2018-06-14T23:22:57.817Z,16.10
2018-06-14T23:25:28.105Z,16.10
2018-06-14T23:27:57.508Z,16.10
2018-06-14T23:30:27.011Z,16.10
2018-06-14T23:32:56.454Z,16.10
2018-06-14T23:35:25.825Z,16.10
2018-06-14T23:37:55.283Z,16.10
2018-06-14T23:40:24.766Z,16.10
2018-06-14T23:42:54.253Z,16.10
2018-06-14T23:45:23.612Z,16.10
2018-06-14T23:47:53.057Z,16.10
2018-06-14T23:50:22.413Z,16.10
2018-06-14T23:52:51.856Z,16.10
2018-06-14T23:55:21.202Z,16.10
2018-06-14T23:57:50.666Z,16.20
